sensor_id;sensor_type;location;lat;lon;timestamp;pressure;altitude;pressure_sealevel;temperature;humidity
51829;BME280;37881;48.024;8.774;2022-09-03T00:00:35;93593.72;;;13.53;94.91
51829;BME280;37881;48.024;8.774;2022-09-03T00:06:09;93599.13;;;13.57;94.97
51829;BME280;37881;48.024;8.774;2022-09-03T00:08:47;93597.91;;;13.58;94.02
51829;BME280;37881;48.024;8.774;2022-09-03T00:14:05;93604.53;;;13.48;94.52
51829;BME280;37881;48.024;8.774;2022-09-03T00:16:45;93592.41;;;13.45;94.68
51829;BME280;37881;48.024;8.774;2022-09-03T00:19:17;93586.34;;;13.50;94.83
51829;BME280;37881;48.024;8.774;2022-09-03T00:21:47;93583.69;;;13.59;94.01
51829;BME280;37881;48.024;8.774;2022-09-03T00:24:19;93587.34;;;13.56;94.15
51829;BME280;37881;48.024;8.774;2022-09-03T00:26:54;93589.97;;;13.60;94.39
51829;BME280;37881;48.024;8.774;2022-09-03T00:29:28;93588.00;;;13.61;93.86
51829;BME280;37881;48.024;8.774;2022-09-03T00:32:02;93591.97;;;13.59;94.10
51829;BME280;37881;48.024;8.774;2022-09-03T00:34:38;93587.09;;;13.64;93.58
51829;BME280;37881;48.024;8.774;2022-09-03T00:37:08;93588.88;;;13.57;93.96
51829;BME280;37881;48.024;8.774;2022-09-03T00:39:42;93586.03;;;13.48;94.35
51829;BME280;37881;48.024;8.774;2022-09-03T00:45:50;93591.00;;;13.41;95.41
51829;BME280;37881;48.024;8.774;2022-09-03T00:48:24;93591.75;;;13.41;95.24
51829;BME280;37881;48.024;8.774;2022-09-03T00:51:16;93599.25;;;13.41;95.16
51829;BME280;37881;48.024;8.774;2022-09-03T00:53:59;93599.25;;;13.41;95.47
51829;BME280;37881;48.024;8.774;2022-09-03T00:59:18;93605.53;;;13.41;95.24
51829;BME280;37881;48.024;8.774;2022-09-03T01:02:06;93604.88;;;13.50;94.54
51829;BME280;37881;48.024;8.774;2022-09-03T01:04:51;93608.28;;;13.41;94.90
51829;BME280;37881;48.024;8.774;2022-09-03T01:12:56;93604.09;;;13.49;94.68
51829;BME280;37881;48.024;8.774;2022-09-03T01:32:02;93606.88;;;13.36;96.06
51829;BME280;37881;48.024;8.774;2022-09-03T01:51:32;93611.69;;;13.58;96.62
51829;BME280;37881;48.024;8.774;2022-09-03T01:56:48;93619.28;;;13.79;95.09
51829;BME280;37881;48.024;8.774;2022-09-03T02:02:19;93610.94;;;13.57;95.42
51829;BME280;37881;48.024;8.774;2022-09-03T02:05:10;93606.97;;;13.33;96.79
51829;BME280;37881;48.024;8.774;2022-09-03T02:07:44;93610.84;;;13.48;97.25
51829;BME280;37881;48.024;8.774;2022-09-03T02:10:18;93612.16;;;13.44;96.95
51829;BME280;37881;48.024;8.774;2022-09-03T02:12:51;93606.53;;;13.47;96.32
51829;BME280;37881;48.024;8.774;2022-09-03T02:15:20;93609.63;;;13.36;97.64
51829;BME280;37881;48.024;8.774;2022-09-03T02:17:52;93604.22;;;13.46;96.51
51829;BME280;37881;48.024;8.774;2022-09-03T02:20:23;93617.00;;;13.52;97.62
51829;BME280;37881;48.024;8.774;2022-09-03T02:22:51;93611.69;;;13.58;96.81
51829;BME280;37881;48.024;8.774;2022-09-03T02:25:21;93618.88;;;13.68;97.53
51829;BME280;37881;48.024;8.774;2022-09-03T02:27:49;93624.81;;;13.79;96.18
51829;BME280;37881;48.024;8.774;2022-09-03T02:30:16;93628.03;;;13.39;96.88
51829;BME280;37881;48.024;8.774;2022-09-03T02:32:44;93627.28;;;12.84;100.00
51829;BME280;37881;48.024;8.774;2022-09-03T02:35:10;93625.94;;;12.76;100.00
51829;BME280;37881;48.024;8.774;2022-09-03T02:37:39;93624.84;;;12.86;100.00
51829;BME280;37881;48.024;8.774;2022-09-03T02:40:06;93624.88;;;13.12;100.00
51829;BME280;37881;48.024;8.774;2022-09-03T02:42:36;93628.53;;;13.22;99.35
51829;BME280;37881;48.024;8.774;2022-09-03T02:45:18;93639.34;;;13.29;98.88
51829;BME280;37881;48.024;8.774;2022-09-03T02:47:51;93639.38;;;13.42;98.30
51829;BME280;37881;48.024;8.774;2022-09-03T02:50:19;93640.59;;;13.53;97.93
51829;BME280;37881;48.024;8.774;2022-09-03T02:52:46;93632.97;;;13.57;98.09
51829;BME280;37881;48.024;8.774;2022-09-03T02:55:13;93634.31;;;13.53;97.06
51829;BME280;37881;48.024;8.774;2022-09-03T02:57:40;93636.84;;;13.60;97.79
51829;BME280;37881;48.024;8.774;2022-09-03T03:00:07;93624.41;;;13.68;97.18
51829;BME280;37881;48.024;8.774;2022-09-03T03:02:34;93628.13;;;13.74;97.09
51829;BME280;37881;48.024;8.774;2022-09-03T03:05:01;93627.22;;;13.77;96.58
51829;BME280;37881;48.024;8.774;2022-09-03T03:07:35;93624.47;;;13.77;96.29
51829;BME280;37881;48.024;8.774;2022-09-03T03:10:03;93622.50;;;13.65;96.56
51829;BME280;37881;48.024;8.774;2022-09-03T03:12:30;93618.41;;;13.70;96.78
51829;BME280;37881;48.024;8.774;2022-09-03T03:14:57;93622.94;;;13.64;96.66
51829;BME280;37881;48.024;8.774;2022-09-03T03:17:23;93619.88;;;13.49;96.77
51829;BME280;37881;48.024;8.774;2022-09-03T03:19:51;93627.47;;;13.32;97.54
51829;BME280;37881;48.024;8.774;2022-09-03T03:22:18;93618.31;;;13.22;98.59
51829;BME280;37881;48.024;8.774;2022-09-03T03:24:44;93620.00;;;13.32;98.25
51829;BME280;37881;48.024;8.774;2022-09-03T03:27:11;93621.31;;;13.41;98.60
51829;BME280;37881;48.024;8.774;2022-09-03T03:29:40;93620.31;;;13.47;98.43
51829;BME280;37881;48.024;8.774;2022-09-03T03:32:06;93617.78;;;13.53;97.09
51829;BME280;37881;48.024;8.774;2022-09-03T03:34:33;93621.97;;;13.45;97.68
51829;BME280;37881;48.024;8.774;2022-09-03T03:37:00;93631.34;;;13.47;96.66
51829;BME280;37881;48.024;8.774;2022-09-03T03:39:27;93630.47;;;13.50;96.78
51829;BME280;37881;48.024;8.774;2022-09-03T03:41:54;93626.25;;;13.33;96.44
51829;BME280;37881;48.024;8.774;2022-09-03T03:44:21;93630.94;;;13.07;98.39
51829;BME280;37881;48.024;8.774;2022-09-03T03:46:48;93632.16;;;13.06;99.18
51829;BME280;37881;48.024;8.774;2022-09-03T03:49:15;93639.44;;;13.12;99.36
51829;BME280;37881;48.024;8.774;2022-09-03T03:51:41;93633.16;;;13.12;98.72
51829;BME280;37881;48.024;8.774;2022-09-03T03:54:08;93631.28;;;13.09;99.37
51829;BME280;37881;48.024;8.774;2022-09-03T03:56:34;93632.94;;;13.19;98.97
51829;BME280;37881;48.024;8.774;2022-09-03T03:59:02;93651.25;;;13.26;98.62
51829;BME280;37881;48.024;8.774;2022-09-03T04:01:29;93648.47;;;13.13;98.77
51829;BME280;37881;48.024;8.774;2022-09-03T04:03:58;93645.97;;;13.18;98.79
51829;BME280;37881;48.024;8.774;2022-09-03T04:06:26;93655.66;;;13.23;98.72
51829;BME280;37881;48.024;8.774;2022-09-03T04:08:54;93657.31;;;13.21;97.97
51829;BME280;37881;48.024;8.774;2022-09-03T04:11:22;93659.31;;;13.20;97.95
51829;BME280;37881;48.024;8.774;2022-09-03T04:13:50;93660.78;;;12.95;98.56
51829;BME280;37881;48.024;8.774;2022-09-03T04:16:18;93667.69;;;12.87;100.00
51829;BME280;37881;48.024;8.774;2022-09-03T04:18:45;93663.69;;;13.05;99.27
51829;BME280;37881;48.024;8.774;2022-09-03T04:21:17;93662.69;;;13.11;98.80
51829;BME280;37881;48.024;8.774;2022-09-03T04:23:46;93659.41;;;13.16;99.30
51829;BME280;37881;48.024;8.774;2022-09-03T04:26:15;93652.38;;;13.28;98.87
51829;BME280;37881;48.024;8.774;2022-09-03T04:28:42;93652.59;;;13.34;97.81
51829;BME280;37881;48.024;8.774;2022-09-03T04:31:12;93651.50;;;13.31;98.80
51829;BME280;37881;48.024;8.774;2022-09-03T04:33:39;93659.72;;;13.18;100.00
51829;BME280;37881;48.024;8.774;2022-09-03T04:36:15;93656.03;;;13.38;99.03
51829;BME280;37881;48.024;8.774;2022-09-03T04:38:44;93663.63;;;13.34;100.00
51829;BME280;37881;48.024;8.774;2022-09-03T04:41:14;93660.66;;;13.41;99.25
51829;BME280;37881;48.024;8.774;2022-09-03T04:43:41;93659.66;;;13.48;99.26
51829;BME280;37881;48.024;8.774;2022-09-03T04:46:10;93659.47;;;13.55;98.54
51829;BME280;37881;48.024;8.774;2022-09-03T04:48:47;93665.75;;;13.55;98.42
51829;BME280;37881;48.024;8.774;2022-09-03T04:51:16;93662.00;;;13.49;99.41
51829;BME280;37881;48.024;8.774;2022-09-03T04:53:44;93670.06;;;13.56;98.94
51829;BME280;37881;48.024;8.774;2022-09-03T04:56:17;93664.88;;;13.58;98.86
51829;BME280;37881;48.024;8.774;2022-09-03T04:58:45;93665.19;;;13.61;99.04
51829;BME280;37881;48.024;8.774;2022-09-03T05:01:20;93666.31;;;13.63;98.89
51829;BME280;37881;48.024;8.774;2022-09-03T05:03:47;93663.75;;;13.69;98.83
51829;BME280;37881;48.024;8.774;2022-09-03T05:06:14;93656.03;;;13.64;98.32
51829;BME280;37881;48.024;8.774;2022-09-03T05:08:46;93663.09;;;13.65;99.23
51829;BME280;37881;48.024;8.774;2022-09-03T05:11:16;93664.63;;;13.66;99.16
51829;BME280;37881;48.024;8.774;2022-09-03T05:13:49;93661.78;;;13.69;99.32
51829;BME280;37881;48.024;8.774;2022-09-03T05:16:17;93676.34;;;13.83;98.77
51829;BME280;37881;48.024;8.774;2022-09-03T05:18:44;93669.16;;;13.85;98.63
51829;BME280;37881;48.024;8.774;2022-09-03T05:21:14;93673.66;;;13.92;98.90
51829;BME280;37881;48.024;8.774;2022-09-03T05:23:43;93672.78;;;13.95;98.83
51829;BME280;37881;48.024;8.774;2022-09-03T05:26:12;93675.56;;;13.95;98.40
51829;BME280;37881;48.024;8.774;2022-09-03T05:28:41;93674.19;;;14.12;98.08
51829;BME280;37881;48.024;8.774;2022-09-03T05:31:16;93676.28;;;14.08;97.81
51829;BME280;37881;48.024;8.774;2022-09-03T05:33:49;93666.91;;;14.18;96.83
51829;BME280;37881;48.024;8.774;2022-09-03T05:36:18;93672.22;;;14.13;96.77
51829;BME280;37881;48.024;8.774;2022-09-03T05:38:46;93665.91;;;14.12;96.25
51829;BME280;37881;48.024;8.774;2022-09-03T05:41:15;93671.09;;;14.10;96.84
51829;BME280;37881;48.024;8.774;2022-09-03T05:43:47;93680.25;;;14.20;96.50
51829;BME280;37881;48.024;8.774;2022-09-03T05:46:17;93672.50;;;14.28;96.65
51829;BME280;37881;48.024;8.774;2022-09-03T05:48:44;93672.94;;;14.39;95.50
51829;BME280;37881;48.024;8.774;2022-09-03T05:51:17;93674.91;;;14.38;96.06
51829;BME280;37881;48.024;8.774;2022-09-03T05:53:45;93680.94;;;14.46;95.95
51829;BME280;37881;48.024;8.774;2022-09-03T05:56:17;93682.25;;;14.54;95.79
51829;BME280;37881;48.024;8.774;2022-09-03T05:58:47;93686.88;;;14.70;94.79
51829;BME280;37881;48.024;8.774;2022-09-03T06:01:17;93682.94;;;14.58;93.96
51829;BME280;37881;48.024;8.774;2022-09-03T06:03:51;93680.06;;;14.62;94.71
51829;BME280;37881;48.024;8.774;2022-09-03T06:06:20;93674.66;;;14.58;94.60
51829;BME280;37881;48.024;8.774;2022-09-03T06:08:51;93681.94;;;14.52;95.46
51829;BME280;37881;48.024;8.774;2022-09-03T06:11:18;93679.72;;;14.60;95.57
51829;BME280;37881;48.024;8.774;2022-09-03T06:13:45;93672.34;;;14.57;94.91
51829;BME280;37881;48.024;8.774;2022-09-03T06:16:12;93666.72;;;14.48;95.64
51829;BME280;37881;48.024;8.774;2022-09-03T06:18:39;93668.13;;;14.52;95.67
51829;BME280;37881;48.024;8.774;2022-09-03T06:21:06;93666.59;;;14.51;96.05
51829;BME280;37881;48.024;8.774;2022-09-03T06:23:34;93661.63;;;14.46;96.39
51829;BME280;37881;48.024;8.774;2022-09-03T06:26:13;93663.63;;;14.46;96.70
51829;BME280;37881;48.024;8.774;2022-09-03T06:28:41;93664.06;;;14.44;96.41
51829;BME280;37881;48.024;8.774;2022-09-03T06:31:13;93657.31;;;14.58;95.38
51829;BME280;37881;48.024;8.774;2022-09-03T06:33:40;93651.59;;;14.74;95.14
51829;BME280;37881;48.024;8.774;2022-09-03T06:36:13;93657.00;;;14.78;94.90
51829;BME280;37881;48.024;8.774;2022-09-03T06:38:42;93655.16;;;14.97;93.70
51829;BME280;37881;48.024;8.774;2022-09-03T06:41:14;93650.97;;;14.92;94.39
51829;BME280;37881;48.024;8.774;2022-09-03T06:43:47;93653.03;;;14.79;94.12
51829;BME280;37881;48.024;8.774;2022-09-03T06:46:17;93653.84;;;15.11;93.76
51829;BME280;37881;48.024;8.774;2022-09-03T06:48:44;93659.00;;;15.22;92.12
51829;BME280;37881;48.024;8.774;2022-09-03T06:51:15;93659.03;;;15.31;92.07
51829;BME280;37881;48.024;8.774;2022-09-03T06:53:44;93656.31;;;15.40;91.99
51829;BME280;37881;48.024;8.774;2022-09-03T06:56:13;93659.84;;;15.41;91.15
51829;BME280;37881;48.024;8.774;2022-09-03T06:58:45;93650.69;;;15.53;91.50
51829;BME280;37881;48.024;8.774;2022-09-03T07:01:14;93650.44;;;15.60;88.51
51829;BME280;37881;48.024;8.774;2022-09-03T07:03:42;93647.59;;;15.42;89.14
51829;BME280;37881;48.024;8.774;2022-09-03T07:06:15;93656.00;;;15.38;89.58
51829;BME280;37881;48.024;8.774;2022-09-03T07:08:42;93646.53;;;15.48;89.59
51829;BME280;37881;48.024;8.774;2022-09-03T07:11:13;93639.31;;;15.51;89.19
51829;BME280;37881;48.024;8.774;2022-09-03T07:13:42;93631.25;;;15.66;88.71
51829;BME280;37881;48.024;8.774;2022-09-03T07:16:15;93633.06;;;16.09;85.77
51829;BME280;37881;48.024;8.774;2022-09-03T07:18:42;93642.22;;;16.65;84.17
51829;BME280;37881;48.024;8.774;2022-09-03T07:21:15;93633.91;;;17.02;81.95
51829;BME280;37881;48.024;8.774;2022-09-03T07:23:42;93635.94;;;17.63;78.75
51829;BME280;37881;48.024;8.774;2022-09-03T07:26:21;93636.63;;;17.91;77.96
51829;BME280;37881;48.024;8.774;2022-09-03T07:28:49;93645.09;;;17.35;77.71
51829;BME280;37881;48.024;8.774;2022-09-03T07:31:25;93638.19;;;18.07;77.28
51829;BME280;37881;48.024;8.774;2022-09-03T07:33:56;93632.78;;;18.12;76.08
51829;BME280;37881;48.024;8.774;2022-09-03T07:36:26;93634.63;;;18.40;74.91
51829;BME280;37881;48.024;8.774;2022-09-03T07:38:55;93627.84;;;17.74;75.85
51829;BME280;37881;48.024;8.774;2022-09-03T07:41:23;93627.34;;;17.42;77.76
51829;BME280;37881;48.024;8.774;2022-09-03T07:43:54;93630.63;;;17.22;77.96
51829;BME280;37881;48.024;8.774;2022-09-03T07:46:24;93630.16;;;17.75;77.13
51829;BME280;37881;48.024;8.774;2022-09-03T07:48:54;93637.72;;;19.79;68.94
51829;BME280;37881;48.024;8.774;2022-09-03T07:51:27;93640.50;;;22.82;59.62
51829;BME280;37881;48.024;8.774;2022-09-03T07:53:56;93639.56;;;22.47;58.91
51829;BME280;37881;48.024;8.774;2022-09-03T07:56:25;93638.72;;;24.12;54.20
51829;BME280;37881;48.024;8.774;2022-09-03T07:58:52;93638.94;;;23.58;54.60
51829;BME280;37881;48.024;8.774;2022-09-03T08:01:24;93648.56;;;22.20;57.27
51829;BME280;37881;48.024;8.774;2022-09-03T08:03:52;93651.81;;;20.82;62.10
51829;BME280;37881;48.024;8.774;2022-09-03T08:06:21;93648.63;;;24.47;53.36
51829;BME280;37881;48.024;8.774;2022-09-03T08:08:54;93648.53;;;23.17;53.57
51829;BME280;37881;48.024;8.774;2022-09-03T08:11:29;93640.97;;;22.69;55.71
51829;BME280;37881;48.024;8.774;2022-09-03T08:14:00;93653.44;;;24.69;50.16
51829;BME280;37881;48.024;8.774;2022-09-03T08:16:29;93648.78;;;25.83;47.15
51829;BME280;37881;48.024;8.774;2022-09-03T08:18:57;93651.59;;;24.83;48.66
51829;BME280;37881;48.024;8.774;2022-09-03T08:21:25;93655.59;;;25.57;48.65
51829;BME280;37881;48.024;8.774;2022-09-03T08:23:54;93657.81;;;24.36;49.64
51829;BME280;37881;48.024;8.774;2022-09-03T08:26:35;93646.84;;;24.44;51.05
51829;BME280;37881;48.024;8.774;2022-09-03T08:29:03;93654.84;;;26.59;46.23
51829;BME280;37881;48.024;8.774;2022-09-03T08:31:31;93663.50;;;26.85;43.66
51829;BME280;37881;48.024;8.774;2022-09-03T08:34:00;93664.72;;;26.10;45.55
51829;BME280;37881;48.024;8.774;2022-09-03T08:36:37;93666.34;;;26.00;45.79
51829;BME280;37881;48.024;8.774;2022-09-03T08:39:05;93661.28;;;25.51;46.62
51829;BME280;37881;48.024;8.774;2022-09-03T08:41:52;93668.69;;;25.49;46.95
51829;BME280;37881;48.024;8.774;2022-09-03T08:44:32;93667.31;;;26.33;44.80
51829;BME280;37881;48.024;8.774;2022-09-03T08:47:28;93659.34;;;26.13;45.40
51829;BME280;37881;48.024;8.774;2022-09-03T08:50:22;93664.00;;;25.63;47.20
51829;BME280;37881;48.024;8.774;2022-09-03T08:52:54;93674.00;;;26.85;42.99
51829;BME280;37881;48.024;8.774;2022-09-03T08:55:33;93681.06;;;27.41;42.56
51829;BME280;37881;48.024;8.774;2022-09-03T08:58:08;93681.78;;;26.48;44.66
51829;BME280;37881;48.024;8.774;2022-09-03T09:00:46;93680.34;;;26.06;45.60
51829;BME280;37881;48.024;8.774;2022-09-03T09:03:25;93682.16;;;25.62;46.72
51829;BME280;37881;48.024;8.774;2022-09-03T09:06:10;93671.78;;;26.78;44.69
51829;BME280;37881;48.024;8.774;2022-09-03T09:11:31;93671.84;;;26.42;45.45
51829;BME280;37881;48.024;8.774;2022-09-03T09:22:55;93665.97;;;24.45;50.69
51829;BME280;37881;48.024;8.774;2022-09-03T09:25:24;93669.31;;;25.25;48.57
51829;BME280;37881;48.024;8.774;2022-09-03T09:28:03;93661.88;;;24.58;49.51
51829;BME280;37881;48.024;8.774;2022-09-03T09:30:36;93661.88;;;24.46;50.26
51829;BME280;37881;48.024;8.774;2022-09-03T09:33:03;93658.75;;;25.48;48.43
51829;BME280;37881;48.024;8.774;2022-09-03T09:35:30;93677.28;;;25.09;48.45
51829;BME280;37881;48.024;8.774;2022-09-03T09:37:57;93656.28;;;26.90;44.91
51829;BME280;37881;48.024;8.774;2022-09-03T09:40:30;93664.16;;;26.73;44.29
51829;BME280;37881;48.024;8.774;2022-09-03T09:43:17;93673.63;;;26.45;44.90
51829;BME280;37881;48.024;8.774;2022-09-03T09:45:49;93673.31;;;27.22;43.44
51829;BME280;37881;48.024;8.774;2022-09-03T09:48:21;93672.13;;;24.27;49.43
51829;BME280;37881;48.024;8.774;2022-09-03T09:50:48;93667.41;;;23.33;52.37
51829;BME280;37881;48.024;8.774;2022-09-03T09:53:17;93670.59;;;24.03;50.74
51829;BME280;37881;48.024;8.774;2022-09-03T09:55:56;93676.56;;;23.34;51.93
51829;BME280;37881;48.024;8.774;2022-09-03T09:58:26;93678.47;;;23.00;53.87
51829;BME280;37881;48.024;8.774;2022-09-03T10:01:16;93691.25;;;21.88;57.18
51829;BME280;37881;48.024;8.774;2022-09-03T10:03:50;93687.78;;;22.31;57.68
51829;BME280;37881;48.024;8.774;2022-09-03T10:06:25;93686.91;;;22.19;57.95
51829;BME280;37881;48.024;8.774;2022-09-03T10:09:14;93684.47;;;21.43;59.60
51829;BME280;37881;48.024;8.774;2022-09-03T10:14:29;93694.75;;;20.34;63.13
51829;BME280;37881;48.024;8.774;2022-09-03T10:17:11;93695.06;;;20.21;63.51
51829;BME280;37881;48.024;8.774;2022-09-03T10:19:47;93696.53;;;20.17;63.36
51829;BME280;37881;48.024;8.774;2022-09-03T10:22:42;93696.34;;;20.05;64.09
51829;BME280;37881;48.024;8.774;2022-09-03T10:25:26;93705.97;;;19.89;65.42
51829;BME280;37881;48.024;8.774;2022-09-03T10:27:57;93702.50;;;19.65;67.55
51829;BME280;37881;48.024;8.774;2022-09-03T10:30:28;93702.38;;;19.29;70.67
51829;BME280;37881;48.024;8.774;2022-09-03T10:33:12;93718.66;;;18.83;72.96
51829;BME280;37881;48.024;8.774;2022-09-03T10:36:09;93729.81;;;18.49;74.90
51829;BME280;37881;48.024;8.774;2022-09-03T10:38:38;93764.66;;;17.37;87.51
51829;BME280;37881;48.024;8.774;2022-09-03T10:41:36;93776.69;;;16.38;86.97
51829;BME280;37881;48.024;8.774;2022-09-03T10:47:11;93768.13;;;15.61;94.54
51829;BME280;37881;48.024;8.774;2022-09-03T10:49:54;93775.72;;;15.70;92.88
51829;BME280;37881;48.024;8.774;2022-09-03T10:52:31;93786.38;;;16.03;94.11
51829;BME280;37881;48.024;8.774;2022-09-03T10:55:16;93787.59;;;16.33;92.05
51829;BME280;37881;48.024;8.774;2022-09-03T11:00:31;93791.25;;;16.70;84.72
51829;BME280;37881;48.024;8.774;2022-09-03T11:06:27;93769.88;;;18.33;79.86
51829;BME280;37881;48.024;8.774;2022-09-03T11:09:00;93758.19;;;18.53;72.86
51829;BME280;37881;48.024;8.774;2022-09-03T11:11:36;93757.06;;;17.84;73.68
51829;BME280;37881;48.024;8.774;2022-09-03T11:14:12;93748.09;;;19.13;70.48
51829;BME280;37881;48.024;8.774;2022-09-03T11:16:48;93751.56;;;19.62;72.33
51829;BME280;37881;48.024;8.774;2022-09-03T11:19:23;93751.34;;;20.40;69.61
51829;BME280;37881;48.024;8.774;2022-09-03T11:21:53;93750.84;;;21.33;66.42
51829;BME280;37881;48.024;8.774;2022-09-03T11:24:25;93747.44;;;21.70;65.86
51829;BME280;37881;48.024;8.774;2022-09-03T11:30:04;93727.41;;;21.04;65.80
51829;BME280;37881;48.024;8.774;2022-09-03T11:32:48;93726.84;;;20.80;63.24
51829;BME280;37881;48.024;8.774;2022-09-03T11:35:37;93719.16;;;21.15;62.62
51829;BME280;37881;48.024;8.774;2022-09-03T11:38:18;93726.00;;;21.35;63.51
51829;BME280;37881;48.024;8.774;2022-09-03T11:43:29;93724.94;;;21.32;62.94
51829;BME280;37881;48.024;8.774;2022-09-03T11:46:09;93732.09;;;21.13;62.05
51829;BME280;37881;48.024;8.774;2022-09-03T11:48:45;93725.91;;;21.50;58.46
51829;BME280;37881;48.024;8.774;2022-09-03T11:53:59;93721.09;;;21.30;61.68
51829;BME280;37881;48.024;8.774;2022-09-03T11:56:27;93712.47;;;21.07;59.56
51829;BME280;37881;48.024;8.774;2022-09-03T12:01:47;93702.06;;;20.31;63.07
51829;BME280;37881;48.024;8.774;2022-09-03T12:04:24;93699.72;;;20.09;64.82
51829;BME280;37881;48.024;8.774;2022-09-03T12:10:32;93713.88;;;20.41;60.38
51829;BME280;37881;48.024;8.774;2022-09-03T12:13:15;93718.19;;;19.77;62.81
51829;BME280;37881;48.024;8.774;2022-09-03T12:18:24;93729.88;;;20.11;61.04
51829;BME280;37881;48.024;8.774;2022-09-03T12:23:47;93734.84;;;20.22;59.70
51829;BME280;37881;48.024;8.774;2022-09-03T12:26:25;93733.44;;;19.82;61.72
51829;BME280;37881;48.024;8.774;2022-09-03T12:28:55;93735.69;;;20.43;59.41
51829;BME280;37881;48.024;8.774;2022-09-03T12:31:28;93735.13;;;20.24;59.99
51829;BME280;37881;48.024;8.774;2022-09-03T12:33:58;93728.88;;;20.29;60.34
51829;BME280;37881;48.024;8.774;2022-09-03T12:36:40;93734.69;;;19.81;60.58
51829;BME280;37881;48.024;8.774;2022-09-03T12:39:16;93740.56;;;20.63;59.40
51829;BME280;37881;48.024;8.774;2022-09-03T12:41:54;93743.13;;;20.66;59.13
51829;BME280;37881;48.024;8.774;2022-09-03T12:44:27;93736.03;;;21.06;58.41
51829;BME280;37881;48.024;8.774;2022-09-03T12:50:05;93734.53;;;21.05;57.84
51829;BME280;37881;48.024;8.774;2022-09-03T12:55:53;93733.75;;;21.25;57.85
51829;BME280;37881;48.024;8.774;2022-09-03T12:58:24;93730.47;;;20.86;58.67
51829;BME280;37881;48.024;8.774;2022-09-03T13:06:13;93737.41;;;20.40;59.76
51829;BME280;37881;48.024;8.774;2022-09-03T13:08:56;93734.97;;;20.63;59.39
51829;BME280;37881;48.024;8.774;2022-09-03T13:11:25;93732.47;;;20.65;58.28
51829;BME280;37881;48.024;8.774;2022-09-03T13:14:04;93736.13;;;19.91;60.37
51829;BME280;37881;48.024;8.774;2022-09-03T13:38:12;93743.09;;;20.16;60.89
51829;BME280;37881;48.024;8.774;2022-09-03T13:40:49;93747.91;;;19.56;61.53
51829;BME280;37881;48.024;8.774;2022-09-03T13:43:45;93742.59;;;19.43;62.38
51829;BME280;37881;48.024;8.774;2022-09-03T13:46:23;93734.28;;;19.19;62.59
51829;BME280;37881;48.024;8.774;2022-09-03T13:52:15;93745.31;;;19.67;59.09
51829;BME280;37881;48.024;8.774;2022-09-03T13:54:57;93738.97;;;19.67;59.78
51829;BME280;37881;48.024;8.774;2022-09-03T13:57:37;93742.28;;;19.95;59.42
51829;BME280;37881;48.024;8.774;2022-09-03T14:00:12;93729.69;;;20.14;59.53
51829;BME280;37881;48.024;8.774;2022-09-03T14:02:51;93727.06;;;20.26;57.74
51829;BME280;37881;48.024;8.774;2022-09-03T14:05:24;93733.75;;;20.34;58.27
51829;BME280;37881;48.024;8.774;2022-09-03T14:10:32;93734.31;;;20.03;58.76
51829;BME280;37881;48.024;8.774;2022-09-03T14:19:00;93725.94;;;19.58;59.47
51829;BME280;37881;48.024;8.774;2022-09-03T14:21:39;93717.47;;;20.12;58.16
51829;BME280;37881;48.024;8.774;2022-09-03T14:24:19;93713.16;;;20.46;57.57
51829;BME280;37881;48.024;8.774;2022-09-03T14:26:51;93712.13;;;20.08;59.67
51829;BME280;37881;48.024;8.774;2022-09-03T14:29:28;93713.44;;;20.13;61.33
51829;BME280;37881;48.024;8.774;2022-09-03T14:37:52;93713.53;;;20.69;56.32
51829;BME280;37881;48.024;8.774;2022-09-03T14:40:45;93712.06;;;20.23;57.81
51829;BME280;37881;48.024;8.774;2022-09-03T14:48:36;93702.25;;;20.28;58.69
51829;BME280;37881;48.024;8.774;2022-09-03T14:57:38;93698.66;;;20.78;58.38
51829;BME280;37881;48.024;8.774;2022-09-03T14:59:53;93697.78;;;20.51;58.96
51829;BME280;37881;48.024;8.774;2022-09-03T15:08:21;93700.97;;;20.44;60.42
51829;BME280;37881;48.024;8.774;2022-09-03T15:10:59;93700.13;;;20.38;60.39
51829;BME280;37881;48.024;8.774;2022-09-03T15:13:33;93699.03;;;20.50;59.45
51829;BME280;37881;48.024;8.774;2022-09-03T15:19:05;93696.50;;;21.08;57.29
51829;BME280;37881;48.024;8.774;2022-09-03T15:24:40;93695.16;;;21.24;55.20
51829;BME280;37881;48.024;8.774;2022-09-03T15:27:14;93696.59;;;21.40;55.90
51829;BME280;37881;48.024;8.774;2022-09-03T15:29:50;93694.47;;;21.29;56.45
51829;BME280;37881;48.024;8.774;2022-09-03T15:32:23;93695.22;;;21.29;56.38
51829;BME280;37881;48.024;8.774;2022-09-03T15:37:46;93694.94;;;21.27;55.38
51829;BME280;37881;48.024;8.774;2022-09-03T15:40:24;93693.25;;;21.35;55.77
51829;BME280;37881;48.024;8.774;2022-09-03T15:43:07;93691.09;;;21.25;56.56
51829;BME280;37881;48.024;8.774;2022-09-03T15:45:38;93697.94;;;21.24;54.37
51829;BME280;37881;48.024;8.774;2022-09-03T15:53:41;93691.22;;;21.36;54.52
51829;BME280;37881;48.024;8.774;2022-09-03T15:56:17;93696.81;;;21.36;54.54
51829;BME280;37881;48.024;8.774;2022-09-03T15:59:11;93709.03;;;21.65;56.57
51829;BME280;37881;48.024;8.774;2022-09-03T16:01:55;93701.13;;;21.58;55.45
51829;BME280;37881;48.024;8.774;2022-09-03T16:04:38;93697.25;;;21.49;55.75
51829;BME280;37881;48.024;8.774;2022-09-03T16:07:17;93700.19;;;21.20;53.94
51829;BME280;37881;48.024;8.774;2022-09-03T16:10:12;93703.41;;;20.92;55.89
51829;BME280;37881;48.024;8.774;2022-09-03T16:15:57;93704.13;;;20.87;60.89
51829;BME280;37881;48.024;8.774;2022-09-03T16:18:36;93703.69;;;20.94;61.17
51829;BME280;37881;48.024;8.774;2022-09-03T16:21:22;93704.25;;;20.78;60.15
51829;BME280;37881;48.024;8.774;2022-09-03T16:23:59;93708.91;;;20.66;60.85
51829;BME280;37881;48.024;8.774;2022-09-03T16:26:39;93710.84;;;20.60;61.31
51829;BME280;37881;48.024;8.774;2022-09-03T16:29:13;93703.25;;;20.60;62.36
51829;BME280;37881;48.024;8.774;2022-09-03T16:42:39;93714.91;;;21.20;60.02
51829;BME280;37881;48.024;8.774;2022-09-03T16:58:36;93729.69;;;20.00;65.22
51829;BME280;37881;48.024;8.774;2022-09-03T17:07:14;93731.22;;;19.56;66.95